sensor_id;sensor_type;location;lat;lon;timestamp;pressure;altitude;pressure_sealevel;temperature;humidity
18850;BME280;4989;48.772;9.154;2024-01-07T00:03:20;97375.56;;;14.17;79.45
18850;BME280;4989;48.772;9.154;2024-01-07T00:08:23;97372.16;;;13.89;78.13
18850;BME280;4989;48.772;9.154;2024-01-07T00:13:32;97381.34;;;14.19;75.94
18850;BME280;4989;48.772;9.154;2024-01-07T00:18:39;97386.19;;;14.15;77.32
18850;BME280;4989;48.772;9.154;2024-01-07T00:24:00;97388.41;;;13.84;76.69
18850;BME280;4989;48.772;9.154;2024-01-07T00:29:22;97381.44;;;13.55;76.69
18850;BME280;4989;48.772;9.154;2024-01-07T00:34:36;97381.44;;;13.64;79.70
18850;BME280;4989;48.772;9.154;2024-01-07T00:40:12;97379.59;;;13.80;79.89
18850;BME280;4989;48.772;9.154;2024-01-07T00:45:28;97387.47;;;13.87;79.21
18850;BME280;4989;48.772;9.154;2024-01-07T00:50:36;97390.09;;;13.72;79.59
18850;BME280;4989;48.772;9.154;2024-01-07T00:55:39;97377.69;;;14.23;77.58
18850;BME280;4989;48.772;9.154;2024-01-07T01:00:43;97387.38;;;14.24;77.11
18850;BME280;4989;48.772;9.154;2024-01-07T01:05:45;97396.50;;;14.20;74.14
18850;BME280;4989;48.772;9.154;2024-01-07T01:10:51;97392.97;;;13.78;74.16
18850;BME280;4989;48.772;9.154;2024-01-07T01:16:00;97397.22;;;13.60;79.75
18850;BME280;4989;48.772;9.154;2024-01-07T01:21:10;97402.09;;;13.65;77.60
18850;BME280;4989;48.772;9.154;2024-01-07T01:26:28;97398.56;;;13.37;80.10
18850;BME280;4989;48.772;9.154;2024-01-07T01:31:38;97407.50;;;13.93;80.11
18850;BME280;4989;48.772;9.154;2024-01-07T01:36:49;97408.88;;;14.40;74.28
18850;BME280;4989;48.772;9.154;2024-01-07T01:42:12;97417.16;;;14.12;75.66
18850;BME280;4989;48.772;9.154;2024-01-07T01:47:32;97414.19;;;13.73;74.60
18850;BME280;4989;48.772;9.154;2024-01-07T01:52:51;97403.25;;;13.73;74.93
18850;BME280;4989;48.772;9.154;2024-01-07T01:58:26;97416.31;;;13.33;78.94
18850;BME280;4989;48.772;9.154;2024-01-07T02:04:00;97419.94;;;14.03;79.35
18850;BME280;4989;48.772;9.154;2024-01-07T02:09:13;97411.44;;;14.01;74.23
18850;BME280;4989;48.772;9.154;2024-01-07T02:14:30;97411.16;;;13.90;76.53
18850;BME280;4989;48.772;9.154;2024-01-07T02:19:36;97410.16;;;14.30;73.10
18850;BME280;4989;48.772;9.154;2024-01-07T02:24:39;97420.50;;;14.26;72.74
18850;BME280;4989;48.772;9.154;2024-01-07T02:29:42;97413.25;;;14.13;76.64
18850;BME280;4989;48.772;9.154;2024-01-07T02:34:54;97413.41;;;13.91;73.61
18850;BME280;4989;48.772;9.154;2024-01-07T02:40:25;97415.94;;;14.23;72.70
18850;BME280;4989;48.772;9.154;2024-01-07T02:45:54;97410.84;;;13.79;74.58
18850;BME280;4989;48.772;9.154;2024-01-07T02:51:19;97414.19;;;13.92;74.99
18850;BME280;4989;48.772;9.154;2024-01-07T02:56:45;97407.81;;;13.95;72.95
18850;BME280;4989;48.772;9.154;2024-01-07T03:01:47;97413.53;;;14.15;74.43
18850;BME280;4989;48.772;9.154;2024-01-07T03:06:50;97418.47;;;13.65;74.72
18850;BME280;4989;48.772;9.154;2024-01-07T03:11:53;97422.84;;;13.63;75.80
18850;BME280;4989;48.772;9.154;2024-01-07T03:16:56;97419.19;;;13.84;76.77
18850;BME280;4989;48.772;9.154;2024-01-07T03:21:59;97429.97;;;13.79;75.09
18850;BME280;4989;48.772;9.154;2024-01-07T03:27:06;97428.63;;;13.56;74.56
18850;BME280;4989;48.772;9.154;2024-01-07T03:32:09;97439.41;;;13.68;71.43
18850;BME280;4989;48.772;9.154;2024-01-07T03:37:18;97433.41;;;12.03;77.82
18850;BME280;4989;48.772;9.154;2024-01-07T03:42:24;97438.25;;;11.29;82.52
18850;BME280;4989;48.772;9.154;2024-01-07T03:47:33;97446.91;;;11.02;84.54
18850;BME280;4989;48.772;9.154;2024-01-07T03:52:36;97438.47;;;10.74;90.47
18850;BME280;4989;48.772;9.154;2024-01-07T03:57:39;97442.13;;;10.68;90.43
18850;BME280;4989;48.772;9.154;2024-01-07T04:02:41;97450.94;;;10.46;89.67
18850;BME280;4989;48.772;9.154;2024-01-07T04:07:50;97443.53;;;10.34;92.49
18850;BME280;4989;48.772;9.154;2024-01-07T04:12:53;97449.53;;;10.29;92.85
18850;BME280;4989;48.772;9.154;2024-01-07T04:17:56;97450.50;;;10.35;100.00
18850;BME280;4989;48.772;9.154;2024-01-07T04:22:59;97457.66;;;10.29;100.00
18850;BME280;4989;48.772;9.154;2024-01-07T04:28:02;97463.72;;;9.91;97.36
18850;BME280;4989;48.772;9.154;2024-01-07T04:33:05;97462.88;;;9.94;95.92
18850;BME280;4989;48.772;9.154;2024-01-07T04:38:09;97465.31;;;10.18;98.66
18850;BME280;4989;48.772;9.154;2024-01-07T04:43:12;97466.69;;;9.97;96.15
18850;BME280;4989;48.772;9.154;2024-01-07T04:48:14;97473.84;;;10.03;98.77
18850;BME280;4989;48.772;9.154;2024-01-07T04:53:17;97476.78;;;9.96;96.67
18850;BME280;4989;48.772;9.154;2024-01-07T04:58:20;97481.66;;;10.01;100.00
18850;BME280;4989;48.772;9.154;2024-01-07T05:03:23;97484.31;;;10.05;100.00
18850;BME280;4989;48.772;9.154;2024-01-07T05:08:27;97483.19;;;10.02;100.00
18850;BME280;4989;48.772;9.154;2024-01-07T05:13:31;97485.06;;;10.05;98.44
18850;BME280;4989;48.772;9.154;2024-01-07T05:18:33;97492.59;;;9.85;99.32
18850;BME280;4989;48.772;9.154;2024-01-07T05:23:39;97497.09;;;9.75;100.00
18850;BME280;4989;48.772;9.154;2024-01-07T05:28:41;97494.09;;;9.86;100.00
18850;BME280;4989;48.772;9.154;2024-01-07T05:33:47;97502.47;;;9.92;100.00
18850;BME280;4989;48.772;9.154;2024-01-07T05:38:53;97511.50;;;10.18;99.92
18850;BME280;4989;48.772;9.154;2024-01-07T05:43:59;97498.44;;;10.13;96.93
18850;BME280;4989;48.772;9.154;2024-01-07T05:49:05;97519.31;;;9.86;100.00
18850;BME280;4989;48.772;9.154;2024-01-07T05:54:08;97522.28;;;9.76;98.11
18850;BME280;4989;48.772;9.154;2024-01-07T05:59:11;97531.09;;;9.80;100.00
18850;BME280;4989;48.772;9.154;2024-01-07T06:04:26;97526.00;;;9.82;98.34
18850;BME280;4989;48.772;9.154;2024-01-07T06:09:32;97526.16;;;9.91;100.00
18850;BME280;4989;48.772;9.154;2024-01-07T06:14:35;97532.63;;;9.64;99.21
18850;BME280;4989;48.772;9.154;2024-01-07T06:19:38;97531.53;;;9.62;100.00
18850;BME280;4989;48.772;9.154;2024-01-07T06:24:41;97538.06;;;9.81;100.00
18850;BME280;4989;48.772;9.154;2024-01-07T06:29:47;97548.38;;;9.86;100.00
18850;BME280;4989;48.772;9.154;2024-01-07T06:34:53;97549.38;;;9.92;100.00
18850;BME280;4989;48.772;9.154;2024-01-07T06:39:57;97548.06;;;9.84;100.00
18850;BME280;4989;48.772;9.154;2024-01-07T06:45:02;97555.84;;;9.82;94.94
18850;BME280;4989;48.772;9.154;2024-01-07T06:50:05;97564.16;;;9.91;96.23
18850;BME280;4989;48.772;9.154;2024-01-07T06:55:09;97566.72;;;9.82;100.00
18850;BME280;4989;48.772;9.154;2024-01-07T07:00:12;97574.69;;;9.73;96.64
18850;BME280;4989;48.772;9.154;2024-01-07T07:05:17;97583.13;;;10.07;99.23
18850;BME280;4989;48.772;9.154;2024-01-07T07:10:20;97586.22;;;9.93;91.95
18850;BME280;4989;48.772;9.154;2024-01-07T07:15:27;97599.97;;;9.53;98.04
18850;BME280;4989;48.772;9.154;2024-01-07T07:20:31;97605.22;;;9.60;100.00
18850;BME280;4989;48.772;9.154;2024-01-07T07:25:34;97610.72;;;10.51;100.00
18850;BME280;4989;48.772;9.154;2024-01-07T07:30:37;97614.81;;;10.43;94.93
18850;BME280;4989;48.772;9.154;2024-01-07T07:35:41;97623.19;;;10.49;100.00
18850;BME280;4989;48.772;9.154;2024-01-07T07:40:51;97630.88;;;10.80;94.76
18850;BME280;4989;48.772;9.154;2024-01-07T07:45:59;97632.44;;;10.51;95.79
18850;BME280;4989;48.772;9.154;2024-01-07T07:51:09;97641.72;;;10.67;86.69
18850;BME280;4989;48.772;9.154;2024-01-07T07:56:16;97650.69;;;10.05;90.14
18850;BME280;4989;48.772;9.154;2024-01-07T08:01:28;97653.47;;;10.18;88.93
18850;BME280;4989;48.772;9.154;2024-01-07T08:06:39;97656.41;;;10.24;88.63
18850;BME280;4989;48.772;9.154;2024-01-07T08:11:49;97664.13;;;10.25;87.91
18850;BME280;4989;48.772;9.154;2024-01-07T08:16:53;97660.84;;;10.34;88.85
18850;BME280;4989;48.772;9.154;2024-01-07T08:21:56;97662.53;;;10.28;90.37
18850;BME280;4989;48.772;9.154;2024-01-07T08:27:07;97672.06;;;10.03;87.27
18850;BME280;4989;48.772;9.154;2024-01-07T08:32:12;97680.84;;;10.07;91.79
18850;BME280;4989;48.772;9.154;2024-01-07T08:37:16;97682.06;;;10.23;89.78
18850;BME280;4989;48.772;9.154;2024-01-07T08:42:21;97687.16;;;9.72;92.11
18850;BME280;4989;48.772;9.154;2024-01-07T08:47:28;97689.00;;;9.58;94.26
18850;BME280;4989;48.772;9.154;2024-01-07T08:52:47;97686.47;;;10.00;91.82
18850;BME280;4989;48.772;9.154;2024-01-07T08:57:57;97692.06;;;9.77;91.67
18850;BME280;4989;48.772;9.154;2024-01-07T09:03:03;97702.34;;;9.85;87.21
18850;BME280;4989;48.772;9.154;2024-01-07T09:08:06;97715.72;;;9.76;90.24
18850;BME280;4989;48.772;9.154;2024-01-07T09:13:09;97721.34;;;10.02;89.69
18850;BME280;4989;48.772;9.154;2024-01-07T09:18:12;97722.22;;;9.99;97.64
18850;BME280;4989;48.772;9.154;2024-01-07T09:23:15;97733.97;;;10.25;87.29
18850;BME280;4989;48.772;9.154;2024-01-07T09:28:21;97738.41;;;10.02;88.45
18850;BME280;4989;48.772;9.154;2024-01-07T09:33:28;97740.59;;;9.75;85.42
18850;BME280;4989;48.772;9.154;2024-01-07T09:38:32;97747.34;;;9.83;85.14
18850;BME280;4989;48.772;9.154;2024-01-07T09:43:34;97750.28;;;10.25;99.39
18850;BME280;4989;48.772;9.154;2024-01-07T09:48:41;97749.75;;;9.97;81.48
18850;BME280;4989;48.772;9.154;2024-01-07T09:53:58;97750.50;;;9.45;86.17
18850;BME280;4989;48.772;9.154;2024-01-07T09:59:05;97748.75;;;10.07;80.68
18850;BME280;4989;48.772;9.154;2024-01-07T10:04:25;97747.22;;;9.90;96.70
18850;BME280;4989;48.772;9.154;2024-01-07T10:09:32;97745.78;;;10.18;87.08
18850;BME280;4989;48.772;9.154;2024-01-07T10:14:39;97738.19;;;9.77;86.37
18850;BME280;4989;48.772;9.154;2024-01-07T10:19:46;97740.88;;;9.60;87.78
18850;BME280;4989;48.772;9.154;2024-01-07T10:24:52;97733.09;;;9.62;95.22
18850;BME280;4989;48.772;9.154;2024-01-07T10:29:58;97748.84;;;9.51;78.29
18850;BME280;4989;48.772;9.154;2024-01-07T10:35:05;97754.22;;;9.35;90.64
18850;BME280;4989;48.772;9.154;2024-01-07T10:40:12;97758.09;;;9.54;85.64
18850;BME280;4989;48.772;9.154;2024-01-07T10:45:16;97760.03;;;9.53;86.29
18850;BME280;4989;48.772;9.154;2024-01-07T10:50:20;97767.59;;;9.62;94.60
18850;BME280;4989;48.772;9.154;2024-01-07T10:55:36;97769.72;;;9.14;74.42
18850;BME280;4989;48.772;9.154;2024-01-07T11:00:47;97777.56;;;9.85;85.66
18850;BME280;4989;48.772;9.154;2024-01-07T11:06:03;97781.94;;;9.62;77.98
18850;BME280;4989;48.772;9.154;2024-01-07T11:11:25;97778.38;;;8.86;77.50
18850;BME280;4989;48.772;9.154;2024-01-07T11:16:44;97783.91;;;9.02;75.31
18850;BME280;4989;48.772;9.154;2024-01-07T11:21:49;97776.25;;;9.37;100.00
18850;BME280;4989;48.772;9.154;2024-01-07T11:27:11;97774.47;;;9.67;83.42
18850;BME280;4989;48.772;9.154;2024-01-07T11:32:20;97771.22;;;9.55;84.77
18850;BME280;4989;48.772;9.154;2024-01-07T11:37:44;97769.72;;;9.71;77.01
18850;BME280;4989;48.772;9.154;2024-01-07T11:42:49;97769.84;;;9.47;81.03
18850;BME280;4989;48.772;9.154;2024-01-07T11:47:54;97767.19;;;9.44;77.26
18850;BME280;4989;48.772;9.154;2024-01-07T11:52:57;97776.91;;;9.81;83.67
18850;BME280;4989;48.772;9.154;2024-01-07T11:58:01;97780.34;;;10.34;99.90
18850;BME280;4989;48.772;9.154;2024-01-07T12:03:07;97779.13;;;11.42;95.51
18850;BME280;4989;48.772;9.154;2024-01-07T12:08:18;97778.50;;;11.64;83.32
18850;BME280;4989;48.772;9.154;2024-01-07T12:13:38;97790.94;;;11.65;86.47
18850;BME280;4989;48.772;9.154;2024-01-07T12:19:33;97784.19;;;11.82;95.87
18850;BME280;4989;48.772;9.154;2024-01-07T12:25:07;97799.22;;;11.74;80.46
18850;BME280;4989;48.772;9.154;2024-01-07T12:30:25;97796.91;;;11.60;89.39
18850;BME280;4989;48.772;9.154;2024-01-07T12:35:42;97787.34;;;10.97;88.09
18850;BME280;4989;48.772;9.154;2024-01-07T12:40:56;97802.63;;;11.49;89.92
18850;BME280;4989;48.772;9.154;2024-01-07T12:46:09;97799.69;;;11.85;86.97
18850;BME280;4989;48.772;9.154;2024-01-07T12:51:13;97798.13;;;11.84;77.22
18850;BME280;4989;48.772;9.154;2024-01-07T12:56:30;97802.53;;;12.20;86.31
18850;BME280;4989;48.772;9.154;2024-01-07T13:02:11;97803.41;;;12.17;85.24
18850;BME280;4989;48.772;9.154;2024-01-07T13:07:20;97820.28;;;11.99;69.05
18850;BME280;4989;48.772;9.154;2024-01-07T13:12:27;97827.16;;;12.04;82.06
18850;BME280;4989;48.772;9.154;2024-01-07T13:17:52;97829.16;;;11.32;61.69
18850;BME280;4989;48.772;9.154;2024-01-07T13:22:56;97831.50;;;11.88;89.40
18850;BME280;4989;48.772;9.154;2024-01-07T13:28:56;97838.59;;;11.99;76.13
18850;BME280;4989;48.772;9.154;2024-01-07T13:33:52;97838.00;;;11.78;80.22
18850;BME280;4989;48.772;9.154;2024-01-07T13:38:55;97848.09;;;12.20;71.89
18850;BME280;4989;48.772;9.154;2024-01-07T13:43:58;97858.44;;;12.12;73.46
18850;BME280;4989;48.772;9.154;2024-01-07T13:49:01;97858.66;;;11.63;67.56
18850;BME280;4989;48.772;9.154;2024-01-07T13:54:08;97863.69;;;11.77;77.28
18850;BME280;4989;48.772;9.154;2024-01-07T13:59:18;97873.16;;;11.73;78.69
18850;BME280;4989;48.772;9.154;2024-01-07T14:04:24;97876.41;;;11.97;74.49
18850;BME280;4989;48.772;9.154;2024-01-07T14:09:47;97883.56;;;11.90;68.70
18850;BME280;4989;48.772;9.154;2024-01-07T14:14:55;97897.56;;;9.76;66.36
18850;BME280;4989;48.772;9.154;2024-01-07T14:19:59;97902.91;;;8.69;69.70
18850;BME280;4989;48.772;9.154;2024-01-07T14:25:16;97912.97;;;8.11;75.35
18850;BME280;4989;48.772;9.154;2024-01-07T14:30:32;97915.63;;;7.84;73.67
18850;BME280;4989;48.772;9.154;2024-01-07T14:35:41;97904.44;;;7.48;75.07
18850;BME280;4989;48.772;9.154;2024-01-07T14:40:53;97922.47;;;7.20;82.13
18850;BME280;4989;48.772;9.154;2024-01-07T14:46:04;97920.66;;;7.44;79.54
18850;BME280;4989;48.772;9.154;2024-01-07T14:51:11;97923.75;;;7.46;88.75
18850;BME280;4989;48.772;9.154;2024-01-07T14:56:22;97936.13;;;7.44;86.34
18850;BME280;4989;48.772;9.154;2024-01-07T15:01:29;97940.94;;;7.25;83.84
18850;BME280;4989;48.772;9.154;2024-01-07T15:06:43;97950.34;;;7.10;82.33
18850;BME280;4989;48.772;9.154;2024-01-07T15:11:53;97960.09;;;6.97;82.61
18850;BME280;4989;48.772;9.154;2024-01-07T15:17:06;97959.25;;;7.07;86.27
18850;BME280;4989;48.772;9.154;2024-01-07T15:22:20;97970.50;;;6.98;82.87
18850;BME280;4989;48.772;9.154;2024-01-07T15:27:23;97980.28;;;6.81;88.57
18850;BME280;4989;48.772;9.154;2024-01-07T15:32:26;97983.72;;;6.85;87.12
18850;BME280;4989;48.772;9.154;2024-01-07T15:37:52;97992.34;;;6.59;92.01
18850;BME280;4989;48.772;9.154;2024-01-07T15:43:02;98005.44;;;6.64;84.42
18850;BME280;4989;48.772;9.154;2024-01-07T15:48:16;98006.16;;;6.72;92.67
18850;BME280;4989;48.772;9.154;2024-01-07T15:53:57;98007.63;;;6.83;89.70
18850;BME280;4989;48.772;9.154;2024-01-07T15:59:10;98016.19;;;6.78;95.41
18850;BME280;4989;48.772;9.154;2024-01-07T16:04:32;98023.84;;;6.83;100.00
18850;BME280;4989;48.772;9.154;2024-01-07T16:09:49;98031.69;;;6.63;94.45
18850;BME280;4989;48.772;9.154;2024-01-07T16:15:08;98040.16;;;6.69;98.78
18850;BME280;4989;48.772;9.154;2024-01-07T16:20:15;98055.22;;;6.63;100.00
18850;BME280;4989;48.772;9.154;2024-01-07T16:25:21;98056.72;;;6.75;100.00
18850;BME280;4989;48.772;9.154;2024-01-07T16:30:27;98060.97;;;6.69;99.56
18850;BME280;4989;48.772;9.154;2024-01-07T16:35:51;98074.94;;;6.49;92.47
18850;BME280;4989;48.772;9.154;2024-01-07T16:40:54;98078.84;;;6.34;94.90
18850;BME280;4989;48.772;9.154;2024-01-07T16:45:57;98078.84;;;6.37;99.72
18850;BME280;4989;48.772;9.154;2024-01-07T16:51:00;98091.94;;;6.35;100.00
18850;BME280;4989;48.772;9.154;2024-01-07T16:56:16;98088.09;;;6.29;94.17
18850;BME280;4989;48.772;9.154;2024-01-07T17:01:23;98100.81;;;6.32;100.00
18850;BME280;4989;48.772;9.154;2024-01-07T17:06:31;98098.94;;;6.08;95.97
18850;BME280;4989;48.772;9.154;2024-01-07T17:11:53;98104.72;;;6.10;100.00
18850;BME280;4989;48.772;9.154;2024-01-07T17:17:11;98113.22;;;6.12;100.00
18850;BME280;4989;48.772;9.154;2024-01-07T17:22:28;98122.84;;;6.24;100.00
18850;BME280;4989;48.772;9.154;2024-01-07T17:33:26;98135.19;;;6.00;100.00
18850;BME280;4989;48.772;9.154;2024-01-07T17:38:37;98141.34;;;5.75;100.00
18850;BME280;4989;48.772;9.154;2024-01-07T17:43:48;98140.59;;;6.07;100.00
18850;BME280;4989;48.772;9.154;2024-01-07T17:49:03;98144.84;;;5.97;96.19
18850;BME280;4989;48.772;9.154;2024-01-07T17:54:15;98144.44;;;6.06;96.38
18850;BME280;4989;48.772;9.154;2024-01-07T17:59:19;98157.91;;;5.84;92.98
18850;BME280;4989;48.772;9.154;2024-01-07T18:04:31;98167.53;;;5.92;99.70
18850;BME280;4989;48.772;9.154;2024-01-07T18:10:14;98160.22;;;5.82;98.41
18850;BME280;4989;48.772;9.154;2024-01-07T18:15:26;98170.59;;;5.80;97.97
18850;BME280;4989;48.772;9.154;2024-01-07T18:20:32;98174.88;;;5.81;96.38
18850;BME280;4989;48.772;9.154;2024-01-07T18:25:43;98178.31;;;5.78;95.28
18850;BME280;4989;48.772;9.154;2024-01-07T18:31:05;98185.25;;;5.72;90.75
18850;BME280;4989;48.772;9.154;2024-01-07T18:36:28;98196.75;;;5.47;92.81
18850;BME280;4989;48.772;9.154;2024-01-07T18:41:42;98194.81;;;5.37;97.35
18850;BME280;4989;48.772;9.154;2024-01-07T18:46:52;98204.50;;;5.67;97.91
18850;BME280;4989;48.772;9.154;2024-01-07T18:52:09;98214.47;;;5.56;92.99
18850;BME280;4989;48.772;9.154;2024-01-07T18:57:37;98220.63;;;5.53;100.00
18850;BME280;4989;48.772;9.154;2024-01-07T19:02:51;98226.44;;;5.58;96.08
18850;BME280;4989;48.772;9.154;2024-01-07T19:08:03;98234.56;;;5.69;96.45
18850;BME280;4989;48.772;9.154;2024-01-07T19:13:16;98240.66;;;5.51;84.05
18850;BME280;4989;48.772;9.154;2024-01-07T19:18:19;98246.06;;;5.51;97.81
18850;BME280;4989;48.772;9.154;2024-01-07T19:23:28;98251.38;;;5.30;88.22
18850;BME280;4989;48.772;9.154;2024-01-07T19:28:32;98256.72;;;5.19;94.03
18850;BME280;4989;48.772;9.154;2024-01-07T19:33:35;98262.50;;;5.25;97.72
18850;BME280;4989;48.772;9.154;2024-01-07T19:38:46;98259.06;;;5.28;93.33
18850;BME280;4989;48.772;9.154;2024-01-07T19:44:00;98260.25;;;5.41;86.57
18850;BME280;4989;48.772;9.154;2024-01-07T19:49:15;98286.78;;;5.28;94.20
18850;BME280;4989;48.772;9.154;2024-01-07T19:54:23;98279.19;;;5.56;99.96
18850;BME280;4989;48.772;9.154;2024-01-07T19:59:30;98280.63;;;5.35;88.86
18850;BME280;4989;48.772;9.154;2024-01-07T20:04:34;98297.66;;;5.54;96.95
18850;BME280;4989;48.772;9.154;2024-01-07T20:09:37;98286.84;;;5.46;94.43
18850;BME280;4989;48.772;9.154;2024-01-07T20:14:52;98296.09;;;5.49;92.17
18850;BME280;4989;48.772;9.154;2024-01-07T20:20:00;98303.84;;;5.58;97.45
18850;BME280;4989;48.772;9.154;2024-01-07T20:25:23;98313.81;;;5.46;99.89
18850;BME280;4989;48.772;9.154;2024-01-07T20:30:33;98317.31;;;5.58;91.55
18850;BME280;4989;48.772;9.154;2024-01-07T20:35:45;98320.78;;;5.55;94.88
18850;BME280;4989;48.772;9.154;2024-01-07T20:41:08;98316.91;;;5.52;94.17
18850;BME280;4989;48.772;9.154;2024-01-07T20:46:12;98313.03;;;5.42;84.37
18850;BME280;4989;48.772;9.154;2024-01-07T20:51:16;98319.88;;;5.25;86.03
18850;BME280;4989;48.772;9.154;2024-01-07T20:56:24;98317.06;;;5.08;87.38
18850;BME280;4989;48.772;9.154;2024-01-07T21:01:29;98327.38;;;4.95;94.95
18850;BME280;4989;48.772;9.154;2024-01-07T21:06:41;98334.47;;;5.21;100.00
18850;BME280;4989;48.772;9.154;2024-01-07T21:11:53;98335.75;;;4.79;86.91
18850;BME280;4989;48.772;9.154;2024-01-07T21:16:57;98334.16;;;4.74;94.08
18850;BME280;4989;48.772;9.154;2024-01-07T21:22:02;98336.56;;;4.87;100.00
18850;BME280;4989;48.772;9.154;2024-01-07T21:27:05;98346.56;;;4.86;100.00
18850;BME280;4989;48.772;9.154;2024-01-07T21:32:08;98340.41;;;4.89;88.71
18850;BME280;4989;48.772;9.154;2024-01-07T21:37:11;98349.69;;;4.92;91.36
18850;BME280;4989;48.772;9.154;2024-01-07T21:42:14;98348.16;;;4.94;90.93
18850;BME280;4989;48.772;9.154;2024-01-07T21:47:38;98359.66;;;4.88;92.20
18850;BME280;4989;48.772;9.154;2024-01-07T21:53:00;98361.81;;;4.68;98.55
18850;BME280;4989;48.772;9.154;2024-01-07T21:58:06;98363.97;;;4.51;91.12
18850;BME280;4989;48.772;9.154;2024-01-07T22:03:14;98373.91;;;4.44;87.80
18850;BME280;4989;48.772;9.154;2024-01-07T22:08:17;98371.50;;;4.35;100.00
18850;BME280;4989;48.772;9.154;2024-01-07T22:13:25;98368.66;;;4.62;100.00
18850;BME280;4989;48.772;9.154;2024-01-07T22:18:32;98376.63;;;4.47;97.24
18850;BME280;4989;48.772;9.154;2024-01-07T22:23:38;98378.66;;;4.57;95.50
18850;BME280;4989;48.772;9.154;2024-01-07T22:28:51;98375.34;;;4.34;95.33
18850;BME280;4989;48.772;9.154;2024-01-07T22:34:00;98385.34;;;4.33;88.81
18850;BME280;4989;48.772;9.154;2024-01-07T22:39:08;98381.47;;;4.31;96.37
18850;BME280;4989;48.772;9.154;2024-01-07T22:44:14;98388.53;;;4.46;94.08
18850;BME280;4989;48.772;9.154;2024-01-07T22:49:18;98389.84;;;4.63;95.01
18850;BME280;4989;48.772;9.154;2024-01-07T22:54:22;98389.31;;;4.50;88.53
18850;BME280;4989;48.772;9.154;2024-01-07T22:59:25;98395.88;;;4.49;87.83
18850;BME280;4989;48.772;9.154;2024-01-07T23:04:28;98391.28;;;4.53;92.69
18850;BME280;4989;48.772;9.154;2024-01-07T23:09:34;98395.53;;;4.54;88.17
18850;BME280;4989;48.772;9.154;2024-01-07T23:14:38;98391.16;;;4.39;86.66
18850;BME280;4989;48.772;9.154;2024-01-07T23:19:41;98398.66;;;4.60;97.82
18850;BME280;4989;48.772;9.154;2024-01-07T23:24:45;98393.22;;;4.56;86.17
18850;BME280;4989;48.772;9.154;2024-01-07T23:29:48;98395.63;;;4.69;93.06
18850;BME280;4989;48.772;9.154;2024-01-07T23:34:55;98399.50;;;4.68;90.95
18850;BME280;4989;48.772;9.154;2024-01-07T23:39:58;98391.19;;;4.43;85.34
18850;BME280;4989;48.772;9.154;2024-01-07T23:45:05;98397.63;;;4.34;92.17
18850;BME280;4989;48.772;9.154;2024-01-07T23:50:11;98391.22;;;4.46;92.06
18850;BME280;4989;48.772;9.154;2024-01-07T23:55:14;98388.25;;;4.58;91.02
